Time;durP1;ratioP1;P1;durP2;ratioP2;P2;SDS_P1;SDS_P2;PMS_P1;PMS_P2;Temp;Humidity;BMP_temperature;BMP_pressure;BME280_temperature;BME280_humidity;BME280_pressure;Samples;Min_cycle;Max_cycle;Signal;HPM_P1;HPM_P2
2023/05/12 00:00:59;;;;;;;3.20;2.45;;;16.20;1.00;;;;;;5032600;28;20614;-49
2023/05/12 00:03:25;;;;;;;3.80;3.50;;;16.20;1.00;;;;;;5031933;28;20029;-49
2023/05/12 00:05:51;;;;;;;4.00;3.70;;;16.10;1.00;;;;;;5033265;28;20034;-51
2023/05/12 00:08:17;;;;;;;4.85;4.45;;;16.20;1.00;;;;;;5031783;28;20144;-49
2023/05/12 00:10:43;;;;;;;4.90;4.50;;;16.10;1.00;;;;;;5033675;28;20133;-51
2023/05/12 00:13:08;;;;;;;5.75;5.18;;;16.20;1.00;;;;;;5033842;28;20481;-48
2023/05/12 00:15:35;;;;;;;5.03;4.60;;;16.20;1.00;;;;;;5032632;28;20030;-50
2023/05/12 00:18:01;;;;;;;5.10;4.35;;;16.20;1.00;;;;;;5029811;28;20397;-49
2023/05/12 00:20:27;;;;;;;4.25;3.95;;;16.20;1.00;;;;;;5034274;28;20025;-49
2023/05/12 00:22:52;;;;;;;4.63;4.32;;;16.10;1.00;;;;;;5033952;28;20471;-48
2023/05/12 00:25:18;;;;;;;4.97;4.45;;;16.10;1.00;;;;;;5034300;28;20036;-47
2023/05/12 00:27:44;;;;;;;4.65;4.28;;;16.00;1.00;;;;;;5034105;28;20128;-48
2023/05/12 00:30:10;;;;;;;4.90;4.38;;;16.00;1.00;;;;;;5034409;28;20033;-48
2023/05/12 00:32:36;;;;;;;4.88;4.47;;;16.10;1.00;;;;;;5032725;28;20021;-49
2023/05/12 00:35:02;;;;;;;5.60;4.95;;;16.00;1.00;;;;;;5033721;28;20109;-48
2023/05/12 00:37:28;;;;;;;5.70;5.20;;;16.00;1.00;;;;;;5032289;28;20030;-51
2023/05/12 00:39:54;;;;;;;5.05;4.65;;;16.00;1.00;;;;;;5034049;28;20483;-48
2023/05/12 00:42:19;;;;;;;5.40;4.90;;;16.10;1.00;;;;;;5032231;28;20056;-49
2023/05/12 00:44:46;;;;;;;5.80;5.03;;;16.00;1.00;;;;;;5033592;28;20375;-47
2023/05/12 00:47:11;;;;;;;6.50;5.25;;;16.00;1.00;;;;;;5033945;28;20475;-49
2023/05/12 00:49:41;;;;;;;5.40;4.93;;;16.10;1.00;;;;;;5032943;28;20033;-49
2023/05/12 00:52:07;;;;;;;5.80;5.30;;;16.10;1.00;;;;;;5032787;28;20040;-50
2023/05/12 00:54:34;;;;;;;6.60;5.78;;;16.10;1.00;;;;;;5031009;28;20137;-52
2023/05/12 00:57:01;;;;;;;6.05;5.50;;;16.10;1.00;;;;;;5032029;28;20495;-49
2023/05/12 00:59:28;;;;;;;7.07;6.47;;;16.10;1.00;;;;;;5031912;28;20032;-51
2023/05/12 01:01:54;;;;;;;6.13;5.63;;;16.10;1.00;;;;;;5031636;28;20029;-53
2023/05/12 01:04:20;;;;;;;6.07;5.40;;;16.10;1.00;;;;;;5033455;28;20033;-50
2023/05/12 01:06:57;;;;;;;6.95;5.93;;;16.10;1.00;;;;;;5031519;28;20091;-49
2023/05/12 01:09:22;;;;;;;6.30;5.78;;;16.00;1.00;;;;;;5030139;28;20038;-47
2023/05/12 01:11:48;;;;;;;6.18;5.68;;;16.10;1.00;;;;;;5031279;28;20025;-47
2023/05/12 01:14:14;;;;;;;7.07;6.47;;;16.10;1.00;;;;;;5030222;28;20025;-49
2023/05/12 01:16:52;;;;;;;6.38;5.88;;;16.00;1.00;;;;;;5031599;28;20388;-48
2023/05/12 01:19:57;;;;;;;6.97;6.38;;;16.00;1.00;;;;;;5030154;28;20075;-51
2023/05/12 01:22:24;;;;;;;7.45;6.80;;;16.00;1.00;;;;;;5030121;28;20116;-50
2023/05/12 01:24:54;;;;;;;8.13;7.32;;;16.00;1.00;;;;;;5031400;28;20505;-47
2023/05/12 01:27:22;;;;;;;7.07;6.47;;;16.10;1.00;;;;;;5031239;28;20053;-48
2023/05/12 01:29:50;;;;;;;7.78;7.07;;;16.10;1.00;;;;;;5031346;28;20026;-49
2023/05/12 01:32:16;;;;;;;7.40;6.80;;;16.00;1.00;;;;;;5031084;28;20390;-48
2023/05/12 01:34:42;;;;;;;7.05;6.45;;;16.00;1.00;;;;;;5031600;28;20475;-48
2023/05/12 01:37:09;;;;;;;7.35;6.55;;;16.00;1.00;;;;;;5030397;28;20471;-47
2023/05/12 01:39:35;;;;;;;7.35;6.72;;;15.90;1.00;;;;;;5031725;28;20422;-47
2023/05/12 01:42:02;;;;;;;6.40;5.80;;;16.00;1.00;;;;;;5031836;28;20065;-47
2023/05/12 01:44:27;;;;;;;5.93;5.20;;;15.90;1.00;;;;;;5032021;28;20041;-49
2023/05/12 01:46:53;;;;;;;4.97;4.47;;;16.00;1.00;;;;;;5032126;28;20092;-48
2023/05/12 01:49:18;;;;;;;5.65;5.15;;;16.00;1.00;;;;;;5030745;28;20021;-47
2023/05/12 01:51:44;;;;;;;4.95;4.55;;;15.90;1.00;;;;;;5032161;28;20057;-49
2023/05/12 01:54:10;;;;;;;4.03;3.67;;;16.00;1.00;;;;;;5032570;28;20013;-48
2023/05/12 01:56:35;;;;;;;3.88;3.53;;;15.90;1.00;;;;;;5031076;28;20041;-47
2023/05/12 01:59:01;;;;;;;4.25;3.88;;;15.90;1.00;;;;;;5032247;28;20029;-52
2023/05/12 02:01:27;;;;;;;4.03;3.67;;;15.90;1.00;;;;;;5031909;28;20025;-48
2023/05/12 02:03:56;;;;;;;4.10;3.80;;;15.90;1.00;;;;;;5032739;28;20109;-48
2023/05/12 02:06:22;;;;;;;4.40;4.00;;;15.90;1.00;;;;;;5030826;28;20025;-51
2023/05/12 02:08:48;;;;;;;4.80;3.30;;;15.90;1.00;;;;;;5032581;28;20378;-54
2023/05/12 02:11:14;;;;;;;3.67;3.38;;;15.90;1.00;;;;;;5033042;28;20026;-53
2023/05/12 02:13:41;;;;;;;3.22;2.92;;;15.90;1.00;;;;;;5032528;28;20048;-54
2023/05/12 02:16:06;;;;;;;3.38;3.08;;;15.90;1.00;;;;;;5029252;28;20040;-51
2023/05/12 02:18:32;;;;;;;3.75;3.13;;;15.90;1.00;;;;;;5032270;28;20378;-51
2023/05/12 02:24:27;;;;;;;4.25;3.15;;;15.80;1.00;;;;;;5023638;28;20033;-49
2023/05/12 02:26:52;;;;;;;3.28;3.03;;;15.80;1.00;;;;;;5030767;28;20038;-51
2023/05/12 02:29:18;;;;;;;3.35;3.08;;;15.80;1.00;;;;;;5025978;28;20364;-50
2023/05/12 02:31:43;;;;;;;4.00;2.78;;;15.80;1.00;;;;;;5031529;28;20372;-51
2023/05/12 02:34:09;;;;;;;3.28;2.97;;;15.80;1.00;;;;;;5027527;28;20056;-53
2023/05/12 02:36:35;;;;;;;2.80;2.60;;;15.80;1.00;;;;;;5031236;28;20038;-47
2023/05/12 02:39:00;;;;;;;2.47;2.20;;;15.80;1.00;;;;;;5040341;28;20045;-51
2023/05/12 02:41:26;;;;;;;1.90;1.80;;;15.80;1.00;;;;;;5030775;28;20494;-54
2023/05/12 02:43:52;;;;;;;1.98;1.88;;;15.70;1.00;;;;;;5022068;28;20014;-50
2023/05/12 02:46:18;;;;;;;2.63;1.48;;;15.70;1.00;;;;;;5024170;28;20459;-49
2023/05/12 02:48:43;;;;;;;1.83;1.73;;;15.70;1.00;;;;;;5032950;28;20025;-47
2023/05/12 02:51:09;;;;;;;3.08;1.98;;;15.60;1.00;;;;;;5035588;28;20384;-51
2023/05/12 02:53:35;;;;;;;1.80;1.70;;;15.70;1.00;;;;;;5035807;28;20025;-48
2023/05/12 02:56:00;;;;;;;1.67;1.58;;;15.70;1.00;;;;;;5035607;28;20467;-50
2023/05/12 02:58:26;;;;;;;1.90;1.80;;;15.70;1.00;;;;;;5035590;28;20103;-48
2023/05/12 03:00:52;;;;;;;1.42;1.33;;;15.70;1.00;;;;;;5035409;28;20025;-50
2023/05/12 03:03:20;;;;;;;2.20;1.67;;;15.70;1.00;;;;;;5035800;28;20521;-51
2023/05/12 03:05:47;;;;;;;2.17;1.95;;;15.70;1.00;;;;;;5031067;28;20095;-51
2023/05/12 03:08:13;;;;;;;2.40;2.10;;;15.70;1.00;;;;;;5035423;28;20052;-50
2023/05/12 03:10:38;;;;;;;2.40;2.30;;;15.70;1.00;;;;;;5033837;28;20476;-47
2023/05/12 03:13:04;;;;;;;2.20;2.00;;;15.70;1.00;;;;;;5033678;28;20479;-47
2023/05/12 03:15:30;;;;;;;2.55;2.35;;;15.70;1.00;;;;;;5032767;28;20037;-49
2023/05/12 03:17:55;;;;;;;2.15;1.95;;;15.70;1.00;;;;;;5033103;28;20037;-50
2023/05/12 03:20:21;;;;;;;3.17;2.22;;;15.70;1.00;;;;;;5033603;28;20463;-47
2023/05/12 03:22:46;;;;;;;2.38;2.17;;;15.60;1.00;;;;;;5034618;28;20030;-51
2023/05/12 03:25:13;;;;;;;2.80;2.60;;;15.60;1.00;;;;;;5034557;28;20034;-51
2023/05/12 03:27:39;;;;;;;2.70;2.50;;;15.60;1.00;;;;;;5033058;28;20096;-51
2023/05/12 03:30:05;;;;;;;3.38;2.65;;;15.50;1.00;;;;;;5032934;28;20439;-50
2023/05/12 03:32:30;;;;;;;2.92;2.50;;;15.50;1.00;;;;;;5035349;28;20422;-50
2023/05/12 03:34:56;;;;;;;2.58;2.20;;;15.40;1.00;;;;;;5034181;28;20029;-50
2023/05/12 03:37:21;;;;;;;2.50;2.30;;;15.50;1.00;;;;;;5033400;28;20021;-49
2023/05/12 03:39:47;;;;;;;2.50;2.20;;;15.40;1.00;;;;;;5032425;28;20079;-48
2023/05/12 03:42:13;;;;;;;2.45;2.25;;;15.40;1.00;;;;;;5033302;28;20107;-50
2023/05/12 03:44:40;;;;;;;2.55;2.35;;;15.40;1.00;;;;;;5030133;28;20315;-48
2023/05/12 03:47:06;;;;;;;2.63;2.15;;;15.40;1.00;;;;;;5032541;28;20041;-50
2023/05/12 03:49:32;;;;;;;2.15;2.05;;;15.30;1.00;;;;;;5033873;28;20052;-50
2023/05/12 03:51:57;;;;;;;2.80;2.33;;;15.30;1.00;;;;;;5034304;28;20037;-52
2023/05/12 03:54:23;;;;;;;3.42;3.10;;;15.40;1.00;;;;;;5034973;28;20055;-50
2023/05/12 03:56:50;;;;;;;3.00;2.80;;;15.40;1.00;;;;;;5033030;28;20029;-47
2023/05/12 03:59:16;;;;;;;3.20;2.80;;;15.40;1.00;;;;;;5033052;28;20033;-48
2023/05/12 04:01:41;;;;;;;3.25;2.95;;;15.40;1.00;;;;;;5033605;28;20036;-48
2023/05/12 04:04:07;;;;;;;3.35;3.05;;;15.40;1.00;;;;;;5034672;28;20034;-52
2023/05/12 04:06:33;;;;;;;3.60;3.30;;;15.30;1.00;;;;;;5032804;28;20041;-52
2023/05/12 04:08:58;;;;;;;4.60;3.28;;;15.30;1.00;;;;;;5032138;28;20033;-51
2023/05/12 04:11:24;;;;;;;4.25;3.80;;;15.20;1.00;;;;;;5033189;28;20100;-50
2023/05/12 04:13:50;;;;;;;4.53;4.07;;;15.20;1.00;;;;;;5033490;28;20040;-52
2023/05/12 04:16:15;;;;;;;4.88;4.47;;;15.20;1.00;;;;;;5030443;28;20032;-49
2023/05/12 04:18:41;;;;;;;3.50;3.30;;;15.20;1.00;;;;;;5034198;28;20026;-47
2023/05/12 04:21:06;;;;;;;5.35;4.65;;;15.20;1.00;;;;;;5033174;28;20033;-51
2023/05/12 04:23:32;;;;;;;5.28;4.18;;;15.30;1.00;;;;;;5034382;28;20033;-49
2023/05/12 04:25:58;;;;;;;4.50;4.10;;;15.30;1.00;;;;;;5033862;28;20471;-47
2023/05/12 04:28:23;;;;;;;4.82;4.32;;;15.40;1.00;;;;;;5034942;28;20040;-49
2023/05/12 04:30:49;;;;;;;4.03;3.63;;;15.40;1.00;;;;;;5033812;28;20033;-53
2023/05/12 04:33:15;;;;;;;3.80;3.50;;;15.40;1.00;;;;;;5034201;28;20035;-49
2023/05/12 04:35:41;;;;;;;4.57;3.70;;;15.40;1.00;;;;;;5033714;28;20025;-50
2023/05/12 04:38:06;;;;;;;4.20;3.90;;;15.40;1.00;;;;;;5032398;28;20025;-51
2023/05/12 04:40:32;;;;;;;5.22;4.15;;;15.40;1.00;;;;;;5033785;28;20115;-48
2023/05/12 04:42:57;;;;;;;4.18;3.78;;;15.40;1.00;;;;;;5033679;28;20037;-47
2023/05/12 04:45:23;;;;;;;4.55;4.15;;;15.40;1.00;;;;;;5034239;28;20017;-50
2023/05/12 04:47:49;;;;;;;3.72;3.42;;;15.40;1.00;;;;;;5032478;28;20183;-50
2023/05/12 04:50:14;;;;;;;3.67;3.38;;;15.40;1.00;;;;;;5032155;28;20566;-50
2023/05/12 04:52:40;;;;;;;4.32;3.83;;;15.40;1.00;;;;;;5032802;28;20037;-49
2023/05/12 04:55:06;;;;;;;4.30;3.90;;;15.40;1.00;;;;;;5028741;28;20551;-52
2023/05/12 04:57:32;;;;;;;3.70;3.38;;;15.50;1.00;;;;;;5030606;28;20021;-48
2023/05/12 04:59:58;;;;;;;3.95;3.58;;;15.50;1.00;;;;;;5031762;28;20021;-50
2023/05/12 05:02:24;;;;;;;4.20;3.88;;;15.40;1.00;;;;;;5034992;28;20067;-50
2023/05/12 05:04:50;;;;;;;4.32;3.92;;;15.40;1.00;;;;;;5033695;28;20026;-48
2023/05/12 05:07:15;;;;;;;4.22;3.90;;;15.50;1.00;;;;;;5033083;28;20408;-49
2023/05/12 05:09:41;;;;;;;4.63;4.22;;;15.50;1.00;;;;;;5033388;28;20055;-49
2023/05/12 05:12:07;;;;;;;4.10;3.80;;;15.50;1.00;;;;;;5032852;28;20033;-48
2023/05/12 05:14:33;;;;;;;3.90;3.60;;;15.50;1.00;;;;;;5032306;28;20052;-51
2023/05/12 05:16:59;;;;;;;4.45;4.05;;;15.50;1.00;;;;;;5031523;28;20080;-49
2023/05/12 05:19:25;;;;;;;5.30;4.90;;;15.60;1.00;;;;;;5032180;28;20024;-54
2023/05/12 05:21:52;;;;;;;3.97;3.50;;;15.60;1.00;;;;;;5033112;28;20033;-50
2023/05/12 05:24:18;;;;;;;4.40;4.00;;;15.60;1.00;;;;;;5032956;28;20029;-48
2023/05/12 05:26:44;;;;;;;4.57;4.18;;;15.50;1.00;;;;;;5032618;28;20041;-49
2023/05/12 05:29:10;;;;;;;5.07;4.57;;;15.60;1.00;;;;;;5031689;28;20045;-50
2023/05/12 05:31:36;;;;;;;5.20;4.78;;;15.60;1.00;;;;;;5029440;28;20026;-50
2023/05/12 05:34:01;;;;;;;4.65;4.22;;;15.60;1.00;;;;;;5029246;28;20048;-53
2023/05/12 05:36:28;;;;;;;5.00;4.60;;;15.60;1.00;;;;;;5032006;28;20031;-54
2023/05/12 05:38:54;;;;;;;4.82;4.45;;;15.60;1.00;;;;;;5032834;28;20531;-55
2023/05/12 05:41:21;;;;;;;5.10;4.60;;;15.70;1.00;;;;;;5032508;28;20184;-55
2023/05/12 05:43:46;;;;;;;5.03;4.13;;;15.60;1.00;;;;;;5032824;28;20475;-50
2023/05/12 05:46:12;;;;;;;4.93;4.53;;;15.70;1.00;;;;;;5032872;28;20032;-52
2023/05/12 05:48:37;;;;;;;5.30;4.80;;;15.60;1.00;;;;;;5033056;28;20083;-51
2023/05/12 05:51:04;;;;;;;5.97;5.47;;;15.70;1.00;;;;;;5032752;28;20036;-53
2023/05/12 05:53:30;;;;;;;8.25;5.60;;;15.60;1.00;;;;;;5032788;28;20116;-51
2023/05/12 05:55:56;;;;;;;5.00;4.50;;;15.70;1.00;;;;;;5021183;28;20151;-52
2023/05/12 05:58:21;;;;;;;4.70;4.30;;;15.60;1.00;;;;;;5033016;28;20033;-48
2023/05/12 06:00:47;;;;;;;6.60;5.50;;;15.60;1.00;;;;;;5032795;28;20121;-52
2023/05/12 06:03:13;;;;;;;5.43;4.93;;;15.60;1.00;;;;;;5032652;28;20034;-51
2023/05/12 06:05:40;;;;;;;5.68;5.18;;;15.60;1.00;;;;;;5032680;28;20026;-52
2023/05/12 06:08:08;;;;;;;6.57;5.05;;;15.70;1.00;;;;;;5032595;28;20418;-51
2023/05/12 06:10:34;;;;;;;5.85;4.88;;;15.60;1.00;;;;;;5031249;28;20091;-51
2023/05/12 06:13:06;;;;;;;6.43;4.72;;;15.70;1.00;;;;;;5033154;28;20034;-54
2023/05/12 06:15:32;;;;;;;5.40;4.90;;;15.60;1.00;;;;;;5032458;28;20026;-53
2023/05/12 06:17:57;;;;;;;7.47;4.93;;;15.60;1.00;;;;;;5032789;28;20018;-53
2023/05/12 06:20:24;;;;;;;7.22;5.60;;;15.60;1.00;;;;;;5031355;28;20399;-49
2023/05/12 06:22:49;;;;;;;5.88;5.38;;;15.70;1.00;;;;;;5032384;28;20213;-52
2023/05/12 06:25:15;;;;;;;6.80;4.93;;;15.70;1.00;;;;;;5035722;28;20560;-50
2023/05/12 06:27:41;;;;;;;6.15;4.90;;;15.70;1.00;;;;;;5036283;28;20045;-52
2023/05/12 06:30:07;;;;;;;5.10;4.70;;;15.80;1.00;;;;;;5036441;28;20030;-49
2023/05/12 06:32:32;;;;;;;6.05;5.20;;;15.80;1.00;;;;;;5035997;28;20041;-50
2023/05/12 06:34:58;;;;;;;5.93;5.43;;;15.90;1.00;;;;;;5036315;28;20022;-47
2023/05/12 06:37:24;;;;;;;5.75;4.95;;;15.90;1.00;;;;;;5035974;28;20030;-50
2023/05/12 06:39:49;;;;;;;7.00;5.72;;;16.00;1.00;;;;;;5035918;28;20033;-49
2023/05/12 06:42:15;;;;;;;9.23;5.75;;;16.00;1.00;;;;;;5035891;28;20064;-50
2023/05/12 06:44:41;;;;;;;7.90;6.50;;;16.10;1.00;;;;;;5035822;28;20475;-49
2023/05/12 06:47:06;;;;;;;6.55;5.38;;;16.10;1.00;;;;;;5035914;28;20037;-52
2023/05/12 06:49:35;;;;;;;9.77;6.28;;;16.10;1.00;;;;;;5035785;28;20017;-49
2023/05/12 06:52:02;;;;;;;5.63;5.13;;;16.10;1.00;;;;;;5035675;28;20407;-52
2023/05/12 06:54:27;;;;;;;7.55;6.00;;;16.20;1.00;;;;;;5035770;28;20379;-47
2023/05/12 06:56:53;;;;;;;7.60;6.85;;;16.20;1.00;;;;;;5034301;28;20030;-50
2023/05/12 06:59:19;;;;;;;6.88;6.18;;;16.10;1.00;;;;;;5035701;28;20024;-61
2023/05/12 07:01:44;;;;;;;7.10;6.32;;;16.20;1.00;;;;;;5035813;28;20033;-58
2023/05/12 07:04:10;;;;;;;7.22;6.32;;;16.10;1.00;;;;;;5035494;28;20037;-52
2023/05/12 07:06:35;;;;;;;9.38;7.03;;;16.10;1.00;;;;;;5035289;28;20030;-53
2023/05/12 07:09:01;;;;;;;9.15;6.75;;;16.10;1.00;;;;;;5035441;28;20030;-59
2023/05/12 07:11:27;;;;;;;8.43;6.50;;;16.00;1.00;;;;;;5034844;28;20112;-60
2023/05/12 07:13:52;;;;;;;9.55;6.80;;;16.10;1.00;;;;;;5030298;28;20033;-52
2023/05/12 07:16:18;;;;;;;7.07;6.38;;;16.10;1.00;;;;;;5034005;28;20026;-54
2023/05/12 07:18:45;;;;;;;8.50;7.25;;;16.20;1.00;;;;;;5034966;28;20025;-55
2023/05/12 07:21:11;;;;;;;7.53;6.18;;;16.20;1.00;;;;;;5038578;28;20037;-47
2023/05/12 07:23:38;;;;;;;8.60;6.88;;;16.30;1.00;;;;;;5033642;28;20018;-53
2023/05/12 07:26:05;;;;;;;8.50;7.35;;;16.30;1.00;;;;;;5033570;28;20022;-56
2023/05/12 07:28:34;;;;;;;7.35;6.65;;;16.40;1.00;;;;;;5027059;28;20095;-58
2023/05/12 07:31:01;;;;;;;7.95;7.18;;;16.40;1.00;;;;;;5020301;28;20025;-53
2023/05/12 07:33:27;;;;;;;7.88;7.07;;;16.50;1.00;;;;;;5035249;28;20055;-55
2023/05/12 07:35:53;;;;;;;10.15;9.35;;;16.60;1.00;;;;;;5051567;28;20044;-56
2023/05/12 07:38:18;;;;;;;9.10;8.20;;;16.70;1.00;;;;;;5036136;28;20022;-52
2023/05/12 07:40:44;;;;;;;8.10;7.30;;;16.60;1.00;;;;;;5033300;28;20061;-57
2023/05/12 07:43:10;;;;;;;12.45;11.15;;;16.60;1.00;;;;;;5034862;28;20030;-51
2023/05/12 07:45:36;;;;;;;11.70;10.70;;;16.70;1.00;;;;;;5034673;28;20052;-55
2023/05/12 07:48:02;;;;;;;10.30;9.38;;;16.80;1.00;;;;;;5034901;28;20038;-55
2023/05/12 07:50:28;;;;;;;10.82;9.73;;;16.70;1.00;;;;;;5045428;28;20051;-57
2023/05/12 07:52:54;;;;;;;7.50;6.80;;;16.70;1.00;;;;;;5043263;28;20487;-58
2023/05/12 07:55:21;;;;;;;10.48;9.48;;;16.80;1.00;;;;;;5033261;28;20029;-55
2023/05/12 07:57:48;;;;;;;8.18;7.47;;;16.90;1.00;;;;;;5034484;28;20032;-60
2023/05/12 08:00:14;;;;;;;9.02;7.63;;;16.80;1.00;;;;;;5034765;28;20025;-59
2023/05/12 08:02:41;;;;;;;10.05;8.82;;;16.90;1.00;;;;;;5034641;28;20387;-56
2023/05/12 08:05:08;;;;;;;8.70;7.88;;;16.90;1.00;;;;;;5034472;28;20022;-57
2023/05/12 08:07:34;;;;;;;8.65;7.85;;;17.00;1.00;;;;;;5034113;28;20193;-60
2023/05/12 08:10:00;;;;;;;10.90;7.85;;;17.00;1.00;;;;;;5032992;28;20136;-54
2023/05/12 08:12:26;;;;;;;9.20;7.47;;;17.00;1.00;;;;;;5034239;28;20045;-56
2023/05/12 08:14:52;;;;;;;8.65;7.75;;;17.10;1.00;;;;;;5034200;28;20103;-51
2023/05/12 08:17:17;;;;;;;8.25;7.45;;;17.10;1.00;;;;;;5033997;28;20079;-51
2023/05/12 08:19:43;;;;;;;8.13;7.25;;;17.20;1.00;;;;;;5033953;28;20037;-60
2023/05/12 08:22:08;;;;;;;9.55;8.27;;;17.20;1.00;;;;;;5033754;28;20371;-56
2023/05/12 08:24:34;;;;;;;8.75;7.90;;;17.20;1.00;;;;;;5032782;28;20456;-57
2023/05/12 08:27:00;;;;;;;8.70;7.82;;;17.20;1.00;;;;;;5049857;28;20040;-55
2023/05/12 08:29:25;;;;;;;8.93;8.02;;;17.20;1.00;;;;;;5042939;28;20026;-55
2023/05/12 08:31:51;;;;;;;8.02;7.22;;;17.20;1.00;;;;;;5029533;28;20025;-54
2023/05/12 08:34:17;;;;;;;7.43;6.80;;;17.20;1.00;;;;;;5035626;28;20041;-53
2023/05/12 08:36:42;;;;;;;8.48;7.43;;;17.20;1.00;;;;;;5032715;28;20057;-49
2023/05/12 08:39:11;;;;;;;8.82;7.95;;;17.30;1.00;;;;;;5034340;28;20052;-50
2023/05/12 08:41:43;;;;;;;8.98;8.07;;;17.40;1.00;;;;;;5032902;28;20041;-56
2023/05/12 08:44:10;;;;;;;9.45;8.55;;;17.30;1.00;;;;;;5030351;28;20021;-60
2023/05/12 08:46:37;;;;;;;10.75;9.50;;;17.20;1.00;;;;;;5032904;28;20056;-49
2023/05/12 08:49:03;;;;;;;9.02;7.80;;;17.30;1.00;;;;;;5032068;28;20041;-60
2023/05/12 08:51:31;;;;;;;7.75;6.95;;;17.20;1.00;;;;;;5034194;28;20017;-49
2023/05/12 08:53:57;;;;;;;16.25;14.68;;;17.20;1.00;;;;;;5035480;28;20559;-58
2023/05/12 08:56:24;;;;;;;9.60;8.80;;;17.20;1.00;;;;;;5033237;28;20113;-62
2023/05/12 08:58:50;;;;;;;8.82;7.93;;;17.30;1.00;;;;;;5034406;28;20025;-58
2023/05/12 09:01:16;;;;;;;9.10;8.20;;;17.40;1.00;;;;;;5035446;28;20416;-53
2023/05/12 09:03:42;;;;;;;8.95;8.00;;;17.50;1.00;;;;;;5034365;28;20064;-61
2023/05/12 09:06:10;;;;;;;9.07;8.27;;;17.70;1.00;;;;;;5035319;28;20033;-60
2023/05/12 09:08:36;;;;;;;8.60;7.63;;;17.80;1.00;;;;;;5034563;28;20087;-65
2023/05/12 09:11:02;;;;;;;13.38;12.18;;;18.00;1.00;;;;;;5035371;28;20063;-60
2023/05/12 09:13:50;;;;;;;10.07;8.65;;;18.00;1.00;;;;;;5034379;28;20061;-59
2023/05/12 09:16:21;;;;;;;9.02;8.07;;;17.90;1.00;;;;;;5035068;28;20075;-60
2023/05/12 09:18:58;;;;;;;12.95;8.65;;;17.80;1.00;;;;;;5034387;28;20029;-55
2023/05/12 09:21:25;;;;;;;10.10;8.82;;;17.70;1.00;;;;;;5035096;28;20051;-61
2023/05/12 09:23:55;;;;;;;9.95;8.95;;;17.80;1.00;;;;;;5034271;28;20033;-62
2023/05/12 09:26:21;;;;;;;12.00;10.77;;;17.80;1.00;;;;;;5044292;28;20372;-61
2023/05/12 09:28:47;;;;;;;10.85;9.85;;;18.00;1.00;;;;;;5049848;28;20049;-52
2023/05/12 09:31:23;;;;;;;11.07;9.85;;;18.10;1.00;;;;;;5033065;28;20028;-55
2023/05/12 09:33:50;;;;;;;10.77;9.77;;;18.20;1.00;;;;;;5029895;28;20030;-60
2023/05/12 09:36:25;;;;;;;11.57;9.20;;;18.20;1.00;;;;;;5028159;28;20064;-54
2023/05/12 09:39:05;;;;;;;8.93;8.02;;;18.20;1.00;;;;;;5044383;28;20026;-60
2023/05/12 09:41:35;;;;;;;8.10;7.35;;;18.20;1.00;;;;;;5031422;28;20041;-50
2023/05/12 09:44:01;;;;;;;8.77;7.90;;;18.20;1.00;;;;;;5019862;28;20034;-54
2023/05/12 09:46:26;;;;;;;8.52;7.78;;;18.20;1.00;;;;;;5032669;28;20048;-50
2023/05/12 09:48:56;;;;;;;9.13;8.10;;;18.20;1.00;;;;;;5032675;28;20025;-52
2023/05/12 09:51:22;;;;;;;8.70;7.90;;;18.30;1.00;;;;;;5032743;28;20029;-52
2023/05/12 09:53:48;;;;;;;9.07;8.18;;;18.30;1.00;;;;;;5032964;28;20029;-54
2023/05/12 09:56:15;;;;;;;8.15;7.25;;;18.30;1.00;;;;;;5031124;28;20407;-56
2023/05/12 09:58:46;;;;;;;7.68;6.97;;;18.20;1.00;;;;;;5035180;28;20033;-59
2023/05/12 10:01:14;;;;;;;8.48;7.43;;;18.20;1.00;;;;;;5034916;28;20037;-48
2023/05/12 10:03:41;;;;;;;7.50;6.80;;;18.30;1.00;;;;;;5036780;28;20026;-45
2023/05/12 10:06:11;;;;;;;7.95;7.20;;;18.30;1.00;;;;;;5031584;28;20115;-61
2023/05/12 10:08:44;;;;;;;7.50;6.80;;;18.30;1.00;;;;;;5036709;28;20113;-51
2023/05/12 10:11:10;;;;;;;7.95;7.18;;;18.50;1.00;;;;;;5023272;28;20029;-57
2023/05/12 10:13:37;;;;;;;6.13;5.60;;;18.70;1.00;;;;;;5036600;28;20030;-59
2023/05/12 10:16:04;;;;;;;7.22;6.57;;;18.80;1.00;;;;;;5036277;28;20013;-64
2023/05/12 10:18:32;;;;;;;8.40;6.68;;;18.90;1.00;;;;;;5036497;28;20032;-48
2023/05/12 10:20:59;;;;;;;8.32;7.53;;;19.00;1.00;;;;;;5036415;28;20052;-50
2023/05/12 10:23:26;;;;;;;6.68;6.07;;;19.10;1.00;;;;;;5036550;28;20387;-49
2023/05/12 10:25:53;;;;;;;7.60;6.88;;;19.20;1.00;;;;;;5036538;28;20033;-61
2023/05/12 10:28:19;;;;;;;7.35;6.75;;;19.30;1.00;;;;;;5036217;28;20121;-61
2023/05/12 10:30:47;;;;;;;12.20;7.18;;;19.40;1.00;;;;;;5036120;28;20025;-61
2023/05/12 10:33:14;;;;;;;7.95;7.15;;;19.20;1.00;;;;;;5036448;28;20033;-48
2023/05/12 10:35:42;;;;;;;8.38;6.63;;;19.10;1.00;;;;;;5035972;28;20135;-53
2023/05/12 10:38:14;;;;;;;7.40;6.57;;;19.20;1.00;;;;;;5035867;28;20029;-55
2023/05/12 10:40:58;;;;;;;7.30;6.53;;;19.10;1.00;;;;;;5034920;28;20561;-52
2023/05/12 10:43:28;;;;;;;10.13;7.60;;;19.20;1.00;;;;;;5033949;28;20454;-53
2023/05/12 10:46:19;;;;;;;7.78;6.50;;;19.20;1.00;;;;;;5035935;28;20059;-50
2023/05/12 10:49:08;;;;;;;8.00;6.32;;;19.40;1.00;;;;;;5021962;28;20037;-52
2023/05/12 10:51:58;;;;;;;6.00;5.40;;;19.40;1.00;;;;;;5034543;28;20025;-51
2023/05/12 10:54:24;;;;;;;5.85;5.35;;;19.30;1.00;;;;;;5035867;28;20375;-49
2023/05/12 10:56:51;;;;;;;6.50;5.20;;;19.40;1.00;;;;;;5035711;28;20434;-50
2023/05/12 10:59:18;;;;;;;5.93;4.55;;;19.50;1.00;;;;;;5035711;28;20037;-50
2023/05/12 11:02:17;;;;;;;4.93;4.40;;;19.70;1.00;;;;;;5035610;28;20468;-49
2023/05/12 11:04:45;;;;;;;4.20;3.78;;;19.90;1.00;;;;;;5035715;28;20024;-53
2023/05/12 11:07:13;;;;;;;6.93;3.80;;;20.10;1.00;;;;;;5035199;28;20582;-54
2023/05/12 11:09:41;;;;;;;11.35;5.32;;;20.30;1.00;;;;;;5034936;28;20025;-52
2023/05/12 11:12:08;;;;;;;5.18;3.13;;;20.50;1.00;;;;;;5035780;28;20022;-55
2023/05/12 11:14:36;;;;;;;3.20;2.90;;;20.70;1.00;;;;;;5035280;28;20024;-50
2023/05/12 11:17:03;;;;;;;5.80;2.78;;;20.80;1.00;;;;;;5024136;28;20022;-51
2023/05/12 11:19:29;;;;;;;2.65;2.45;;;20.60;1.00;;;;;;5034101;28;20030;-51
2023/05/12 11:21:55;;;;;;;3.63;3.33;;;20.40;1.00;;;;;;5035291;28;20025;-49
2023/05/12 11:24:21;;;;;;;2.60;2.40;;;20.30;1.00;;;;;;5022424;28;20112;-49
2023/05/12 11:26:51;;;;;;;3.50;3.20;;;20.10;1.00;;;;;;5045069;28;20026;-52
2023/05/12 11:29:22;;;;;;;3.80;3.22;;;19.90;1.00;;;;;;5035197;28;20151;-52
2023/05/12 11:31:49;;;;;;;5.55;4.25;;;19.80;1.00;;;;;;5035075;28;20022;-51
2023/05/12 11:34:19;;;;;;;5.40;3.40;;;19.70;1.00;;;;;;5022002;28;20026;-56
2023/05/12 11:36:46;;;;;;;4.07;3.67;;;19.60;1.00;;;;;;5034953;28;20030;-50
2023/05/12 11:39:20;;;;;;;4.18;3.13;;;19.60;1.00;;;;;;5035206;28;20056;-49
2023/05/12 11:41:47;;;;;;;3.70;3.40;;;19.50;1.00;;;;;;5045494;28;20056;-49
2023/05/12 11:44:17;;;;;;;3.92;3.03;;;19.40;1.00;;;;;;5037894;28;20499;-50
2023/05/12 11:47:09;;;;;;;3.20;2.45;;;19.40;1.00;;;;;;5035050;28;20060;-51
2023/05/12 11:49:54;;;;;;;3.65;2.97;;;19.30;1.00;;;;;;5034773;28;20029;-50
2023/05/12 11:52:21;;;;;;;4.82;4.38;;;19.20;1.00;;;;;;5034740;28;20021;-51
2023/05/12 11:54:51;;;;;;;3.35;3.05;;;19.30;1.00;;;;;;5034376;28;20453;-49
2023/05/12 11:57:53;;;;;;;3.67;3.22;;;19.10;1.00;;;;;;5033981;28;20021;-54
2023/05/12 12:00:32;;;;;;;4.40;3.63;;;19.20;1.00;;;;;;5023960;28;20022;-51
2023/05/12 12:03:13;;;;;;;5.03;4.57;;;19.30;1.00;;;;;;5034439;28;20033;-52
2023/05/12 12:05:41;;;;;;;4.38;3.90;;;19.50;1.00;;;;;;5034342;28;20024;-51
2023/05/12 12:08:08;;;;;;;4.10;3.67;;;19.40;1.00;;;;;;5034287;28;20040;-51
2023/05/12 12:10:34;;;;;;;4.72;3.80;;;19.30;1.00;;;;;;5034607;28;20075;-50
2023/05/12 12:13:00;;;;;;;4.30;3.90;;;19.00;99.90;;;;;;5034254;28;20491;-53
2023/05/12 12:15:27;;;;;;;3.80;3.50;;;18.60;1.00;;;;;;5034261;28;20029;-53
2023/05/12 12:17:52;;;;;;;4.18;3.10;;;18.80;1.00;;;;;;5032839;28;20546;-51
2023/05/12 12:20:18;;;;;;;5.22;4.57;;;19.10;1.00;;;;;;5033276;28;20116;-53
2023/05/12 12:22:44;;;;;;;4.15;2.70;;;19.40;1.00;;;;;;5034138;28;20029;-50
2023/05/12 12:25:09;;;;;;;2.55;2.35;;;19.60;1.00;;;;;;5030283;28;20053;-53
2023/05/12 12:27:35;;;;;;;2.72;2.50;;;19.50;1.00;;;;;;5024091;28;20033;-53
2023/05/12 12:30:01;;;;;;;6.20;3.10;;;19.40;1.00;;;;;;5033863;28;20025;-51
2023/05/12 12:32:27;;;;;;;2.90;2.38;;;19.30;1.00;;;;;;5034309;28;20067;-50
2023/05/12 12:34:58;;;;;;;2.60;2.15;;;19.20;1.00;;;;;;5033938;28;20532;-52
2023/05/12 12:37:24;;;;;;;2.72;2.05;;;19.10;1.00;;;;;;5033912;28;20021;-52
2023/05/12 12:39:50;;;;;;;4.93;2.60;;;19.00;1.00;;;;;;5033808;28;20078;-52
2023/05/12 12:42:15;;;;;;;3.25;2.67;;;18.90;1.00;;;;;;5032597;28;20049;-57
2023/05/12 12:44:41;;;;;;;6.07;4.00;;;18.80;1.00;;;;;;5032433;28;20036;-55
2023/05/12 12:47:07;;;;;;;8.93;4.20;;;18.80;1.00;;;;;;5033552;28;20033;-51
2023/05/12 12:49:33;;;;;;;3.78;1.98;;;18.90;1.00;;;;;;5033825;28;20406;-50
2023/05/12 12:51:59;;;;;;;4.72;2.80;;;18.90;1.00;;;;;;5031184;28;20111;-52
2023/05/12 12:54:28;;;;;;;4.85;3.05;;;18.90;1.00;;;;;;5032726;28;20119;-50
2023/05/12 12:56:54;;;;;;;9.00;5.88;;;18.90;1.00;;;;;;5030958;28;20483;-50
2023/05/12 12:59:20;;;;;;;5.53;3.10;;;18.60;1.00;;;;;;5032561;28;20025;-52